Terminal Aerodrome Forecast
Issued by NWS

Home | Current Version | Previous Version | Text Only | Print | Product List | Glossary On
Versions: 1 2 3 4 5 6 7 8 9 10 11 12 13 14 15 16 17 18 19 20 21 22 23 24 25 26
400
FTUS45 KPSR 250113 AAA
TAFSDL
TAF AMD
KSDL 250113Z 2501/2524 24012G18KT P6SM SKC
     FM250230 25007KT P6SM SKC
     FM250500 VRB04KT P6SM SKC
     FM251600 17006KT P6SM SKC
     FM252200 23011G20KT P6SM SKC=

USA.gov is the U.S. government's official web portal to all federal, state and local government web resources and services.